Time;durP1;ratioP1;P1;durP2;ratioP2;P2;SDS_P1;SDS_P2;PMS_P1;PMS_P2;Temp;Humidity;BMP_temperature;BMP_pressure;BME280_temperature;BME280_humidity;BME280_pressure;Samples;Min_cycle;Max_cycle;Signal;HPM_P1;HPM_P2
2023/12/25 00:02:07;;;;;;;0.90;0.90;;;;;;;-2.04;100.00;96983.53;4770688;29;20051;-79
2023/12/25 00:04:34;;;;;;;1.10;1.10;;;;;;;-2.05;100.00;96984.56;4784170;30;20106;-79
2023/12/25 00:07:07;;;;;;;0.93;0.93;;;;;;;-2.08;100.00;96989.44;4770187;29;20075;-80
2023/12/25 00:09:34;;;;;;;1.10;1.10;;;;;;;-2.11;100.00;96992.53;4770535;30;20063;-79
2023/12/25 00:12:02;;;;;;;0.90;0.90;;;;;;;-2.13;100.00;96989.28;4770382;30;20048;-79
2023/12/25 00:14:29;;;;;;;1.20;1.17;;;;;;;-2.12;100.00;96989.09;4769225;30;20070;-79
2023/12/25 00:16:56;;;;;;;1.10;1.10;;;;;;;-2.12;100.00;96983.00;4770602;29;20142;-78
2023/12/25 00:19:23;;;;;;;1.20;1.20;;;;;;;-2.13;100.00;96989.28;4770038;30;20059;-80
2023/12/25 00:21:51;;;;;;;1.10;1.10;;;;;;;-2.11;100.00;96989.88;4769986;29;20427;-80
2023/12/25 00:24:19;;;;;;;1.00;1.00;;;;;;;-2.11;100.00;96998.63;4770448;30;20488;-80
2023/12/25 00:26:47;;;;;;;1.05;1.05;;;;;;;-2.11;100.00;97001.25;4770052;30;20465;-81
2023/12/25 00:29:17;;;;;;;1.10;1.10;;;;;;;-2.09;100.00;97009.78;4770241;29;20090;-80
2023/12/25 00:31:44;;;;;;;1.10;1.10;;;;;;;-2.07;100.00;97009.59;4770028;30;20056;-81
2023/12/25 00:34:12;;;;;;;1.00;1.00;;;;;;;-2.06;100.00;97013.84;4769876;29;20482;-81
2023/12/25 00:36:39;;;;;;;1.00;1.00;;;;;;;-2.02;100.00;97012.41;4783767;30;20066;-82
2023/12/25 00:39:09;;;;;;;1.30;1.20;;;;;;;-2.01;100.00;97020.09;4783965;30;20142;-82
2023/12/25 00:41:36;;;;;;;1.10;1.10;;;;;;;-2.04;100.00;97017.09;4783711;30;20158;-81
2023/12/25 00:44:03;;;;;;;1.00;1.00;;;;;;;-2.06;100.00;97011.19;4769634;30;20117;-80
2023/12/25 00:46:31;;;;;;;1.30;1.20;;;;;;;-2.07;100.00;97017.53;4769615;30;20087;-80
2023/12/25 00:48:59;;;;;;;0.90;0.90;;;;;;;-2.13;100.00;97021.00;4769479;29;20051;-79
2023/12/25 00:51:27;;;;;;;0.90;0.90;;;;;;;-2.14;100.00;97014.09;4783530;30;20071;-80
2023/12/25 00:53:56;;;;;;;1.17;1.15;;;;;;;-2.13;100.00;97021.00;4768572;29;20146;-78
2023/12/25 00:56:26;;;;;;;1.10;1.10;;;;;;;-2.11;100.00;97021.59;4769684;30;20546;-79
2023/12/25 00:58:53;;;;;;;1.02;1.02;;;;;;;-2.12;100.00;97025.28;4769231;30;20526;-79
2023/12/25 01:01:21;;;;;;;1.10;1.10;;;;;;;-2.13;100.00;97024.44;4768611;30;20056;-79
2023/12/25 01:03:49;;;;;;;1.15;1.15;;;;;;;-2.14;100.00;97024.69;4769327;30;20400;-79
2023/12/25 01:06:19;;;;;;;1.13;1.13;;;;;;;-2.13;100.00;97029.72;4769142;30;20545;-80
2023/12/25 01:08:46;;;;;;;1.00;1.00;;;;;;;-2.15;100.00;97023.03;4767664;30;20055;-80
2023/12/25 01:11:14;;;;;;;1.08;1.08;;;;;;;-2.16;100.00;97032.00;4783008;30;20048;-80
2023/12/25 01:13:42;;;;;;;1.10;1.10;;;;;;;-2.15;100.00;97029.16;4768877;29;20063;-80
2023/12/25 01:16:11;;;;;;;1.00;1.00;;;;;;;-2.15;100.00;97026.50;4769336;30;20059;-79
2023/12/25 01:18:39;;;;;;;1.00;1.00;;;;;;;-2.14;100.00;97019.41;4749673;29;20091;-80
2023/12/25 01:21:06;;;;;;;1.00;1.00;;;;;;;-2.17;100.00;97020.63;4765254;30;20052;-78
2023/12/25 01:23:33;;;;;;;0.93;0.93;;;;;;;-2.13;100.00;97018.34;4765058;29;20056;-81
2023/12/25 01:26:01;;;;;;;1.08;1.08;;;;;;;-2.13;100.00;97029.72;4751228;30;20064;-79
2023/12/25 01:28:28;;;;;;;1.10;1.10;;;;;;;-2.15;100.00;97025.69;4751156;30;20512;-81
2023/12/25 01:30:55;;;;;;;1.00;1.00;;;;;;;-2.17;100.00;97017.19;4750894;30;20113;-80
2023/12/25 01:33:24;;;;;;;1.10;1.10;;;;;;;-2.20;100.00;97034.28;4751092;30;20110;-81
2023/12/25 01:35:55;;;;;;;1.15;1.10;;;;;;;-2.20;100.00;97034.28;4750977;30;20547;-80
2023/12/25 01:38:23;;;;;;;1.15;1.15;;;;;;;-2.23;100.00;97027.56;4751250;30;20420;-81
2023/12/25 01:40:51;;;;;;;0.93;0.93;;;;;;;-2.24;100.00;97039.16;4750943;30;20183;-80
2023/12/25 01:43:18;;;;;;;1.30;1.20;;;;;;;-2.22;100.00;97034.47;4764428;30;20432;-80
2023/12/25 01:45:46;;;;;;;1.05;1.05;;;;;;;-2.24;100.00;97039.16;4765763;29;20059;-80
2023/12/25 01:48:13;;;;;;;1.00;1.00;;;;;;;-2.24;100.00;97047.06;4768954;30;20083;-79
2023/12/25 01:50:47;;;;;;;1.30;1.20;;;;;;;-2.27;100.00;97034.28;4756088;30;20055;-79
2023/12/25 01:53:14;;;;;;;1.10;1.10;;;;;;;-2.24;100.00;97041.78;4776537;30;20063;-79
2023/12/25 01:55:41;;;;;;;1.00;1.00;;;;;;;-2.25;100.00;97042.81;4787220;29;20778;-81
2023/12/25 01:58:09;;;;;;;1.00;1.00;;;;;;;-2.27;100.00;97049.34;4772690;30;20079;-79
2023/12/25 02:00:36;;;;;;;1.10;1.10;;;;;;;-2.27;100.00;97044.84;4782938;30;20106;-80
2023/12/25 02:03:04;;;;;;;1.23;1.13;;;;;;;-2.24;100.00;97041.00;4782614;30;20109;-79
2023/12/25 02:05:32;;;;;;;1.00;1.00;;;;;;;-2.23;100.00;97043.44;4767293;30;20056;-80
2023/12/25 02:08:01;;;;;;;1.10;1.10;;;;;;;-2.24;100.00;97046.28;4767569;30;20123;-80
2023/12/25 02:10:29;;;;;;;1.10;1.10;;;;;;;-2.26;100.00;97045.66;4768462;29;20153;-80
2023/12/25 02:12:59;;;;;;;0.98;0.98;;;;;;;-2.26;100.00;97046.47;4768024;30;20415;-80
2023/12/25 02:15:29;;;;;;;0.80;0.80;;;;;;;-2.26;100.00;97041.19;4768512;30;20066;-80
2023/12/25 02:17:57;;;;;;;1.20;1.20;;;;;;;-2.26;100.00;97040.38;4771608;30;20062;-80
2023/12/25 02:20:25;;;;;;;1.20;1.20;;;;;;;-2.27;100.00;97047.50;4786323;30;20052;-79
2023/12/25 02:22:53;;;;;;;0.98;0.98;;;;;;;-2.27;100.00;97041.41;4769980;30;20052;-79
2023/12/25 02:25:31;;;;;;;1.10;1.10;;;;;;;-2.27;100.00;97041.41;4770878;30;20051;-79
2023/12/25 02:28:00;;;;;;;0.98;0.98;;;;;;;-2.26;100.00;97029.81;4768190;29;20063;-79
2023/12/25 02:30:32;;;;;;;1.17;1.17;;;;;;;-2.30;100.00;97033.91;4768007;29;20436;-78
2023/12/25 02:33:04;;;;;;;1.00;1.00;;;;;;;-2.33;100.00;97034.31;4765547;30;20113;-79
2023/12/25 02:35:32;;;;;;;1.00;1.00;;;;;;;-2.34;100.00;97040.63;4780183;29;20157;-79
2023/12/25 02:38:03;;;;;;;0.95;0.95;;;;;;;-2.35;100.00;97037.19;4781316;30;20051;-81
2023/12/25 02:40:35;;;;;;;1.00;1.00;;;;;;;-2.54;100.00;97030.13;4767791;29;20051;-80
2023/12/25 02:43:03;;;;;;;1.08;1.08;;;;;;;-2.44;100.00;97033.16;4767660;30;20051;-79
2023/12/25 02:45:30;;;;;;;1.00;1.00;;;;;;;-2.46;100.00;97040.47;4763518;30;20055;-79
2023/12/25 02:47:58;;;;;;;0.82;0.82;;;;;;;-2.50;100.00;97039.28;4767464;29;20064;-78
2023/12/25 02:50:35;;;;;;;1.10;1.10;;;;;;;-2.47;100.00;97039.66;4767710;30;20142;-79
2023/12/25 02:53:05;;;;;;;1.10;1.10;;;;;;;-2.48;100.00;97051.25;4766011;30;20523;-80
2023/12/25 02:55:37;;;;;;;0.98;0.98;;;;;;;-2.45;100.00;97052.66;4766398;30;20573;-80
2023/12/25 02:58:05;;;;;;;1.10;1.10;;;;;;;-2.43;100.00;97051.44;4781347;30;20504;-79
2023/12/25 03:00:34;;;;;;;1.00;1.00;;;;;;;-2.42;100.00;97053.06;4768261;30;20121;-80
2023/12/25 03:03:02;;;;;;;1.05;1.05;;;;;;;-2.43;100.00;97050.59;4768101;30;20052;-79
2023/12/25 03:05:29;;;;;;;1.00;1.00;;;;;;;-2.48;100.00;97053.91;4767900;29;20059;-79
2023/12/25 03:07:57;;;;;;;1.15;1.10;;;;;;;-2.42;100.00;97054.88;4766543;29;20052;-80
2023/12/25 03:10:25;;;;;;;0.90;0.90;;;;;;;-2.41;100.00;97057.31;4767502;29;20063;-79
2023/12/25 03:12:52;;;;;;;1.02;1.02;;;;;;;-2.40;100.00;97050.22;4767165;30;20062;-80
2023/12/25 03:15:19;;;;;;;1.10;1.10;;;;;;;-2.40;100.00;97052.84;4767397;30;20106;-80
2023/12/25 03:17:47;;;;;;;1.10;1.10;;;;;;;-2.40;100.00;97050.22;4769012;30;20047;-80
2023/12/25 03:20:14;;;;;;;0.85;0.85;;;;;;;-2.42;100.00;97050.41;4771250;30;20056;-79
2023/12/25 03:22:41;;;;;;;1.00;1.00;;;;;;;-2.44;100.00;97049.81;4770610;29;20136;-79
2023/12/25 03:25:09;;;;;;;1.00;1.00;;;;;;;-2.46;100.00;97053.69;4784497;30;20613;-80
2023/12/25 03:27:36;;;;;;;1.00;1.00;;;;;;;-2.48;100.00;97058.34;4770709;30;20052;-79
2023/12/25 03:30:06;;;;;;;1.08;1.08;;;;;;;-2.53;100.00;97050.25;4770686;29;20059;-80
2023/12/25 03:32:36;;;;;;;1.00;1.00;;;;;;;-2.56;100.00;97040.09;4770725;30;20535;-79
2023/12/25 03:35:03;;;;;;;1.10;1.10;;;;;;;-2.57;100.00;97055.13;4769621;30;20051;-79
2023/12/25 03:37:32;;;;;;;1.10;1.10;;;;;;;-2.53;100.00;97053.72;4770795;29;20147;-80
2023/12/25 03:39:59;;;;;;;1.20;1.15;;;;;;;-2.53;100.00;97056.34;4770496;30;20067;-79
2023/12/25 03:42:35;;;;;;;0.98;0.98;;;;;;;-2.50;100.00;97055.94;4770759;30;20427;-80
2023/12/25 03:45:06;;;;;;;1.10;1.10;;;;;;;-2.52;100.00;97050.03;4769408;30;20502;-79
2023/12/25 03:47:56;;;;;;;1.10;1.10;;;;;;;-2.52;100.00;97055.31;4770721;30;20423;-79
2023/12/25 03:50:25;;;;;;;1.10;1.10;;;;;;;-2.53;100.00;97051.06;4770635;30;20063;-81
2023/12/25 03:52:52;;;;;;;1.10;1.10;;;;;;;-2.52;100.00;97046.59;4770521;30;20147;-79
2023/12/25 03:55:19;;;;;;;1.05;1.05;;;;;;;-2.59;100.00;97045.81;4770549;30;20068;-80
2023/12/25 03:57:47;;;;;;;1.10;1.10;;;;;;;-2.53;100.00;97050.25;4770249;30;20472;-80
2023/12/25 04:00:18;;;;;;;1.10;1.10;;;;;;;-2.54;100.00;97044.16;4770131;29;20079;-79
2023/12/25 04:02:52;;;;;;;1.00;1.00;;;;;;;-2.52;100.00;97042.13;4783734;30;20058;-78
2023/12/25 04:05:23;;;;;;;0.93;0.93;;;;;;;-2.58;100.00;97045.59;4770173;30;20072;-79
2023/12/25 04:07:51;;;;;;;1.10;1.10;;;;;;;-2.57;100.00;97041.13;4780026;29;20055;-79
2023/12/25 04:10:20;;;;;;;1.00;1.00;;;;;;;-2.58;100.00;97039.50;4783204;30;20058;-79
2023/12/25 04:12:50;;;;;;;1.13;1.13;;;;;;;-2.66;100.00;97030.81;4769562;29;20056;-80
2023/12/25 04:15:17;;;;;;;1.10;1.10;;;;;;;-2.63;100.00;97038.31;4767266;30;20535;-79
2023/12/25 04:17:47;;;;;;;1.25;1.20;;;;;;;-2.63;100.00;97038.31;4782064;29;20048;-78
2023/12/25 04:20:15;;;;;;;1.30;1.20;;;;;;;-2.62;100.00;97034.63;4783019;30;20107;-84
2023/12/25 04:22:43;;;;;;;1.00;1.00;;;;;;;-2.63;100.00;97032.22;4768840;30;20515;-80
2023/12/25 04:25:10;;;;;;;1.10;1.10;;;;;;;-2.65;100.00;97026.31;4767923;30;20127;-79
2023/12/25 04:27:37;;;;;;;1.00;1.00;;;;;;;-2.60;100.00;97041.56;4766851;30;20116;-81
2023/12/25 04:30:08;;;;;;;1.10;1.10;;;;;;;-2.63;100.00;97030.38;4766604;30;20063;-78
2023/12/25 04:32:36;;;;;;;0.90;0.90;;;;;;;-2.62;100.00;97034.63;4769794;29;20478;-81
2023/12/25 04:35:03;;;;;;;1.02;1.02;;;;;;;-2.64;100.00;97031.38;4768432;30;20538;-80
2023/12/25 04:37:33;;;;;;;1.30;1.20;;;;;;;-2.65;100.00;97037.69;4765402;30;20521;-79
2023/12/25 04:40:01;;;;;;;1.00;1.00;;;;;;;-2.63;100.00;97038.31;4749847;30;20055;-81
2023/12/25 04:42:31;;;;;;;1.10;1.10;;;;;;;-2.67;100.00;97023.88;4779571;29;20056;-81
2023/12/25 04:45:00;;;;;;;1.00;1.00;;;;;;;-2.65;100.00;97028.97;4765249;30;20860;-80
2023/12/25 04:47:29;;;;;;;1.05;1.05;;;;;;;-2.64;100.00;97031.38;4752325;30;20594;-81
2023/12/25 04:49:59;;;;;;;0.90;0.90;;;;;;;-2.66;100.00;97028.16;4764040;30;20052;-80
2023/12/25 04:52:29;;;;;;;1.10;1.10;;;;;;;-2.66;100.00;97025.53;4763499;30;20511;-77
2023/12/25 04:54:57;;;;;;;1.00;1.00;;;;;;;-2.69;100.00;97028.56;4780515;30;20055;-79
2023/12/25 04:57:27;;;;;;;1.00;1.00;;;;;;;-2.76;100.00;97032.25;4782193;29;20071;-78
2023/12/25 04:59:54;;;;;;;1.00;1.00;;;;;;;-2.73;100.00;97024.72;4780527;30;20056;-80
2023/12/25 05:02:22;;;;;;;1.00;1.00;;;;;;;-2.73;100.00;97030.00;4778345;29;20049;-79
2023/12/25 05:04:50;;;;;;;0.90;0.90;;;;;;;-2.71;100.00;97032.44;4762735;30;20913;-78
2023/12/25 05:07:17;;;;;;;0.95;0.95;;;;;;;-2.77;100.00;97044.63;4763760;30;20067;-79
2023/12/25 05:09:45;;;;;;;1.00;1.00;;;;;;;-2.77;100.00;97038.56;4765495;30;20059;-78
2023/12/25 05:12:13;;;;;;;0.95;0.95;;;;;;;-2.78;100.00;97050.13;4767693;30;20079;-78
2023/12/25 05:14:46;;;;;;;0.90;0.90;;;;;;;-2.81;100.00;97038.16;4766038;30;20148;-78
2023/12/25 05:17:16;;;;;;;1.02;1.02;;;;;;;-2.81;100.00;97037.34;4767852;30;20055;-79
2023/12/25 05:19:47;;;;;;;1.10;1.10;;;;;;;-2.80;100.00;97045.06;4781164;30;20057;-78
2023/12/25 05:22:15;;;;;;;1.10;1.10;;;;;;;-2.82;100.00;97031.25;4781710;30;20583;-78
2023/12/25 05:24:42;;;;;;;1.00;1.00;;;;;;;-2.83;100.00;97038.38;4767975;30;20055;-78
2023/12/25 05:27:10;;;;;;;1.00;1.00;;;;;;;-2.82;100.00;97031.25;4767257;30;20070;-78
2023/12/25 05:29:40;;;;;;;1.13;1.13;;;;;;;-2.80;100.00;97031.84;4767141;30;20135;-79
2023/12/25 05:32:07;;;;;;;1.08;1.08;;;;;;;-2.79;100.00;97028.19;4766843;30;20048;-81
2023/12/25 05:34:36;;;;;;;1.00;1.00;;;;;;;-2.81;100.00;97035.53;4767839;30;20058;-80
2023/12/25 05:37:03;;;;;;;1.00;1.00;;;;;;;-2.83;99.93;97030.44;4781470;30;20409;-81
2023/12/25 05:39:34;;;;;;;1.00;1.00;;;;;;;-2.86;99.96;97033.50;4778742;29;20414;-79
2023/12/25 05:42:01;;;;;;;0.93;0.93;;;;;;;-2.86;100.00;97032.66;4766691;29;20051;-79
2023/12/25 05:44:29;;;;;;;1.00;1.00;;;;;;;-2.83;99.80;97040.19;4767911;30;20059;-80
2023/12/25 05:46:59;;;;;;;1.10;1.10;;;;;;;-2.80;99.49;97033.69;4764284;30;20063;-80
2023/12/25 05:49:27;;;;;;;0.90;0.90;;;;;;;-2.80;99.54;97041.59;4763308;30;20055;-79
2023/12/25 05:51:54;;;;;;;0.90;0.90;;;;;;;-2.82;99.22;97039.16;4781040;30;20151;-79
2023/12/25 05:54:21;;;;;;;1.08;1.08;;;;;;;-2.81;99.12;97038.16;4766451;30;20500;-80
2023/12/25 05:56:49;;;;;;;1.08;1.08;;;;;;;-2.82;99.13;97047.09;4764052;30;20527;-80
2023/12/25 05:59:17;;;;;;;0.93;0.93;;;;;;;-2.86;98.78;97036.16;4766048;30;20055;-80
2023/12/25 06:01:48;;;;;;;1.10;1.10;;;;;;;-2.92;98.41;97050.16;4766473;30;20132;-79
2023/12/25 06:04:15;;;;;;;1.33;1.23;;;;;;;-2.94;98.69;97043.47;4766850;29;20063;-80
2023/12/25 06:06:43;;;;;;;1.17;1.10;;;;;;;-2.96;98.75;97045.47;4762333;30;20060;-81
2023/12/25 06:09:12;;;;;;;1.00;1.00;;;;;;;-2.96;99.13;97045.47;4779233;30;20059;-81
2023/12/25 06:11:40;;;;;;;1.13;1.10;;;;;;;-2.93;99.18;97035.34;4765188;30;20608;-79
2023/12/25 06:14:07;;;;;;;1.00;1.00;;;;;;;-2.91;99.23;97032.47;4766057;30;20055;-78
2023/12/25 06:16:35;;;;;;;1.08;1.08;;;;;;;-2.94;99.21;97032.91;4765596;29;20111;-79
2023/12/25 06:19:02;;;;;;;1.00;1.00;;;;;;;-2.94;99.66;97040.81;4765830;30;20063;-81
2023/12/25 06:21:30;;;;;;;1.00;1.00;;;;;;;-2.89;99.16;97035.72;4767010;29;20147;-78
2023/12/25 06:24:01;;;;;;;1.00;1.00;;;;;;;-2.90;99.06;97037.56;4767091;29;20051;-79
2023/12/25 06:26:28;;;;;;;1.00;1.00;;;;;;;-2.89;98.58;97033.09;4767177;30;20051;-79
2023/12/25 06:28:55;;;;;;;1.40;1.30;;;;;;;-2.89;98.62;97043.66;4779496;30;20055;-81
2023/12/25 06:31:23;;;;;;;0.90;0.90;;;;;;;-2.88;98.57;97038.16;4755070;29;20109;-83
2023/12/25 06:33:50;;;;;;;0.98;0.98;;;;;;;-2.90;98.71;97026.19;4764203;30;20055;-79
2023/12/25 06:36:19;;;;;;;1.25;1.20;;;;;;;-2.86;98.51;97035.31;4766794;30;20520;-80
2023/12/25 06:38:47;;;;;;;0.85;0.85;;;;;;;-2.81;98.64;97037.34;4766603;30;20117;-80
2023/12/25 06:41:14;;;;;;;1.10;1.10;;;;;;;-2.81;98.92;97032.88;4765223;30;20717;-79
2023/12/25 06:43:44;;;;;;;1.05;1.05;;;;;;;-2.80;98.99;97034.50;4766635;30;20079;-81
2023/12/25 06:46:14;;;;;;;1.10;1.10;;;;;;;-2.88;98.74;97032.91;4765311;30;20150;-79
2023/12/25 06:48:43;;;;;;;1.00;1.00;;;;;;;-2.83;99.02;97032.28;4762928;30;20081;-78
2023/12/25 06:51:14;;;;;;;1.00;1.00;;;;;;;-2.85;98.68;97027.19;4763809;29;20124;-78
2023/12/25 06:53:42;;;;;;;1.20;1.20;;;;;;;-2.87;98.26;97034.50;4748852;30;20059;-80
2023/12/25 06:56:10;;;;;;;1.10;1.10;;;;;;;-2.92;98.55;97026.38;4763166;30;20576;-78
2023/12/25 06:58:39;;;;;;;1.40;1.30;;;;;;;-2.93;98.92;97021.34;4766639;30;20056;-79
2023/12/25 07:01:06;;;;;;;1.10;1.10;;;;;;;-2.83;99.25;97042.84;4765793;30;20578;-78
2023/12/25 07:03:37;;;;;;;0.90;0.90;;;;;;;-2.84;99.23;97023.56;4765837;30;20700;-79
2023/12/25 07:06:12;;;;;;;1.13;1.13;;;;;;;-2.77;99.41;97028.78;4762446;30;20105;-79
2023/12/25 07:08:40;;;;;;;1.20;1.20;;;;;;;-2.75;98.82;97020.69;4764364;30;20515;-79
2023/12/25 07:11:07;;;;;;;1.10;1.10;;;;;;;-2.90;98.82;97005.09;4765864;29;20071;-79
2023/12/25 07:13:36;;;;;;;1.00;1.00;;;;;;;-2.88;98.91;97003.84;4764550;30;20043;-80
2023/12/25 07:16:04;;;;;;;1.10;1.10;;;;;;;-2.95;99.12;97010.16;4765058;30;20052;-79
2023/12/25 07:18:32;;;;;;;1.10;1.10;;;;;;;-2.81;99.45;97014.41;4764588;30;20051;-78
2023/12/25 07:21:00;;;;;;;1.13;1.13;;;;;;;-2.75;99.22;97034.69;4764768;30;20052;-79
2023/12/25 07:23:27;;;;;;;1.08;1.08;;;;;;;-2.80;98.87;97029.22;4762967;29;20059;-80
2023/12/25 07:25:54;;;;;;;1.00;1.00;;;;;;;-2.78;99.21;97035.09;4766435;30;20699;-78
2023/12/25 07:28:22;;;;;;;1.08;1.08;;;;;;;-2.78;99.13;97034.31;4765015;30;20048;-79
2023/12/25 07:30:50;;;;;;;1.00;1.00;;;;;;;-2.77;99.32;97033.28;4766097;30;20154;-80
2023/12/25 07:33:23;;;;;;;0.90;0.90;;;;;;;-2.78;99.20;97029.81;4766609;30;20536;-79
2023/12/25 07:35:52;;;;;;;1.20;1.17;;;;;;;-2.82;99.40;97025.97;4765997;30;20432;-79
2023/12/25 07:38:20;;;;;;;1.20;1.13;;;;;;;-2.78;99.19;97027.19;4780281;30;20161;-79
2023/12/25 07:40:49;;;;;;;1.00;1.00;;;;;;;-2.78;99.38;97024.53;4768023;30;20086;-80
2023/12/25 07:43:16;;;;;;;0.90;0.90;;;;;;;-2.83;99.23;97008.50;4759196;30;20063;-80
2023/12/25 07:45:45;;;;;;;1.00;1.00;;;;;;;-2.71;99.38;97024.50;4768585;29;20456;-80
2023/12/25 07:48:12;;;;;;;0.90;0.90;;;;;;;-2.77;99.26;97018.22;4764982;30;20151;-79
2023/12/25 07:50:40;;;;;;;1.02;1.02;;;;;;;-2.80;99.53;97015.22;4749935;30;20047;-81
2023/12/25 07:53:12;;;;;;;1.10;1.10;;;;;;;-2.72;99.50;97015.78;4764902;30;20048;-79
2023/12/25 07:55:40;;;;;;;1.10;1.10;;;;;;;-2.68;99.39;97011.72;4764768;30;20066;-79
2023/12/25 07:58:10;;;;;;;1.10;1.10;;;;;;;-2.59;99.38;97014.13;4765907;30;20063;-79
2023/12/25 08:00:37;;;;;;;1.10;1.10;;;;;;;-2.54;99.11;97006.38;4765693;30;20511;-79
2023/12/25 08:03:05;;;;;;;1.30;1.20;;;;;;;-2.50;98.68;97005.75;4767678;29;20512;-79
2023/12/25 08:05:33;;;;;;;1.30;1.20;;;;;;;-2.50;98.19;96995.19;4768491;30;20051;-79
2023/12/25 08:08:01;;;;;;;1.10;1.10;;;;;;;-2.43;98.09;96995.13;4767894;30;20140;-79
2023/12/25 08:10:29;;;;;;;1.00;1.00;;;;;;;-2.40;97.81;96997.38;4768048;30;20052;-79
2023/12/25 08:12:58;;;;;;;0.80;0.80;;;;;;;-2.43;97.29;96981.91;4769540;30;20086;-79
2023/12/25 08:15:29;;;;;;;0.95;0.95;;;;;;;-2.34;96.74;96988.59;4766054;30;20052;-79
2023/12/25 08:18:06;;;;;;;1.10;1.10;;;;;;;-2.32;96.24;96983.91;4769149;29;20063;-80
2023/12/25 08:20:34;;;;;;;1.25;1.17;;;;;;;-2.26;96.00;96980.41;4769276;30;20070;-79
2023/12/25 08:23:03;;;;;;;1.00;1.00;;;;;;;-2.21;95.89;96980.59;4768741;30;20081;-79
2023/12/25 08:25:30;;;;;;;1.00;1.00;;;;;;;-2.15;95.64;96971.00;4768669;30;20497;-79
2023/12/25 08:28:01;;;;;;;0.95;0.95;;;;;;;-2.11;95.18;96974.03;4768478;30;20060;-79
2023/12/25 08:30:28;;;;;;;1.02;1.02;;;;;;;-2.14;94.64;96969.97;4768912;29;20125;-77
2023/12/25 08:32:59;;;;;;;1.10;1.10;;;;;;;-2.13;94.66;96971.59;4768960;29;20052;-79
2023/12/25 08:35:27;;;;;;;1.38;1.27;;;;;;;-2.15;93.83;96968.38;4769104;30;20139;-79
2023/12/25 08:37:54;;;;;;;1.00;1.00;;;;;;;-2.16;93.64;96965.94;4769063;29;20170;-80
2023/12/25 08:40:46;;;;;;;1.00;1.00;;;;;;;-2.19;92.71;96957.41;4769093;30;20105;-79
2023/12/25 08:43:13;;;;;;;0.98;0.98;;;;;;;-2.22;91.93;96955.19;4768916;30;20060;-78
2023/12/25 08:45:41;;;;;;;1.13;1.13;;;;;;;-2.22;91.61;96962.31;4778849;30;20063;-78
2023/12/25 08:48:08;;;;;;;1.20;1.17;;;;;;;-2.25;91.29;96947.69;4766867;30;20052;-80
2023/12/25 08:50:39;;;;;;;1.10;1.10;;;;;;;-2.26;91.21;96961.09;4779860;29;20083;-80
2023/12/25 08:53:09;;;;;;;1.02;1.02;;;;;;;-2.27;90.94;96948.94;4769103;30;20069;-80
2023/12/25 08:55:41;;;;;;;1.30;1.20;;;;;;;-2.34;91.28;96951.59;4766674;29;20129;-79
2023/12/25 08:58:08;;;;;;;1.30;1.20;;;;;;;-2.27;91.13;96938.34;4762009;30;20121;-80
2023/12/25 09:00:36;;;;;;;1.13;1.13;;;;;;;-2.25;90.84;96949.53;4765167;30;20047;-80
2023/12/25 09:03:06;;;;;;;1.30;1.20;;;;;;;-2.19;90.59;96935.44;4768487;30;20052;-79
2023/12/25 09:05:34;;;;;;;1.08;1.08;;;;;;;-2.22;90.29;96935.88;4768034;30;20052;-79
2023/12/25 09:08:02;;;;;;;1.15;1.15;;;;;;;-2.26;90.11;96929.41;4766954;29;20095;-79
2023/12/25 09:10:30;;;;;;;1.30;1.20;;;;;;;-2.23;89.72;96921.88;4764926;30;20454;-80
2023/12/25 09:12:57;;;;;;;1.05;1.05;;;;;;;-2.27;89.91;96917.22;4767506;29;20102;-79
2023/12/25 09:15:26;;;;;;;1.02;1.02;;;;;;;-2.30;89.45;96913.19;4765447;30;20044;-79
2023/12/25 09:17:53;;;;;;;1.23;1.20;;;;;;;-2.27;89.50;96918.03;4767092;30;20052;-80
2023/12/25 09:20:27;;;;;;;1.10;1.10;;;;;;;-2.27;88.55;96904.81;4765819;29;20144;-80
2023/12/25 09:22:55;;;;;;;1.00;1.00;;;;;;;-2.25;88.13;96908.06;4766396;30;20079;-78
2023/12/25 09:25:23;;;;;;;1.40;1.30;;;;;;;-2.23;88.41;96892.81;4780631;30;20056;-78
2023/12/25 09:27:52;;;;;;;1.13;1.13;;;;;;;-2.21;87.97;96889.94;4767623;29;20059;-78
2023/12/25 09:30:20;;;;;;;0.98;0.98;;;;;;;-2.19;88.58;96893.97;4768351;29;20114;-80
2023/12/25 09:32:47;;;;;;;1.10;1.10;;;;;;;-2.22;88.28;96898.88;4767537;30;20055;-80
2023/12/25 09:35:15;;;;;;;1.08;1.08;;;;;;;-2.16;88.36;96892.72;4777533;30;20572;-81
2023/12/25 09:37:43;;;;;;;1.10;1.10;;;;;;;-2.15;87.93;96897.00;4780538;30;20054;-79
2023/12/25 09:40:11;;;;;;;1.00;1.00;;;;;;;-2.29;87.08;96877.78;4764863;30;20048;-79
2023/12/25 09:42:38;;;;;;;1.20;1.15;;;;;;;-2.35;86.32;96865.44;4765317;30;20059;-80
2023/12/25 09:45:08;;;;;;;1.17;1.15;;;;;;;-2.23;86.52;96882.22;4766579;30;20539;-80
2023/12/25 09:47:36;;;;;;;1.00;1.00;;;;;;;-2.20;86.36;96884.44;4763599;30;20058;-80
2023/12/25 09:50:05;;;;;;;1.00;1.00;;;;;;;-2.35;86.50;96867.28;4765788;30;20450;-83
2023/12/25 09:52:33;;;;;;;1.08;1.08;;;;;;;-2.21;86.46;96887.28;4780406;29;20372;-80
2023/12/25 09:55:00;;;;;;;1.20;1.15;;;;;;;-2.19;85.59;96867.53;4778910;30;20051;-80
2023/12/25 09:57:30;;;;;;;1.25;1.17;;;;;;;-2.19;85.56;96850.88;4778163;30;20424;-80
2023/12/25 09:59:58;;;;;;;1.10;1.10;;;;;;;-2.15;85.24;96861.81;4765180;30;20416;-80
2023/12/25 10:02:30;;;;;;;0.90;0.90;;;;;;;-2.11;85.82;96860.38;4777840;30;20051;-80
2023/12/25 10:05:01;;;;;;;1.10;1.10;;;;;;;-2.07;85.71;96858.94;4762630;30;20059;-79
2023/12/25 10:07:29;;;;;;;1.10;1.10;;;;;;;-2.05;86.09;96851.56;4755642;30;20441;-83
2023/12/25 10:09:57;;;;;;;0.90;0.90;;;;;;;-2.06;85.78;96852.59;4765384;30;20056;-78
2023/12/25 10:12:25;;;;;;;1.08;1.08;;;;;;;-2.07;85.82;96848.34;4767758;30;20580;-80
2023/12/25 10:14:53;;;;;;;1.10;1.10;;;;;;;-1.98;85.89;96854.97;4766724;30;20533;-80
2023/12/25 10:17:23;;;;;;;1.10;1.10;;;;;;;-1.93;85.02;96855.13;4757041;30;20095;-80
2023/12/25 10:19:57;;;;;;;1.00;1.00;;;;;;;-2.07;84.14;96838.59;4763419;30;20118;-80
2023/12/25 10:22:29;;;;;;;1.10;1.10;;;;;;;-2.04;83.92;96846.09;4766559;30;20135;-78
2023/12/25 10:25:09;;;;;;;1.10;1.10;;;;;;;-2.10;83.93;96849.59;4762735;30;20084;-80
2023/12/25 10:27:40;;;;;;;1.08;1.08;;;;;;;-2.06;83.60;96842.03;4766461;30;20082;-80
2023/12/25 10:30:15;;;;;;;1.30;1.20;;;;;;;-2.10;83.65;96838.19;4766425;30;20054;-79
2023/12/25 10:32:47;;;;;;;1.02;1.02;;;;;;;-2.18;83.40;96831.34;4764104;30;20065;-79
2023/12/25 10:35:18;;;;;;;0.93;0.93;;;;;;;-2.14;84.10;96827.25;4765977;30;20052;-80
2023/12/25 10:37:46;;;;;;;0.90;0.90;;;;;;;-2.25;84.45;96823.50;4764262;30;20494;-78
2023/12/25 10:40:17;;;;;;;0.90;0.90;;;;;;;-2.15;84.51;96836.22;4750204;30;20479;-78
2023/12/25 10:42:50;;;;;;;1.30;1.20;;;;;;;-2.14;84.15;96826.47;4766451;30;20086;-81
2023/12/25 10:45:21;;;;;;;1.08;1.08;;;;;;;-2.15;83.92;96835.41;4779112;30;20052;-80
2023/12/25 10:48:00;;;;;;;1.10;1.10;;;;;;;-2.13;83.42;96828.06;4780134;29;20066;-79
2023/12/25 10:50:36;;;;;;;1.10;1.10;;;;;;;-2.09;82.99;96829.25;4763905;30;20048;-79
2023/12/25 10:53:03;;;;;;;;;;;;;;;-2.10;83.00;96811.75;4764402;30;20520;-79
2023/12/25 10:55:39;;;;;;;1.10;1.10;;;;;;;-2.11;82.79;96815.44;4749365;30;19937;-81
2023/12/25 10:58:08;;;;;;;1.10;1.10;;;;;;;-2.16;82.58;96812.66;4761653;30;20060;-79
2023/12/25 11:00:39;;;;;;;1.25;1.20;;;;;;;-2.08;82.82;96805.22;4754288;30;20048;-80
2023/12/25 11:03:14;;;;;;;1.33;1.23;;;;;;;-2.00;82.34;96790.94;4769949;30;20082;-79
2023/12/25 11:05:43;;;;;;;0.90;0.90;;;;;;;-2.03;81.52;96801.94;4779736;30;20067;-80
2023/12/25 11:08:16;;;;;;;1.30;1.20;;;;;;;-2.01;81.45;96791.97;4765870;29;20060;-80
2023/12/25 11:10:57;;;;;;;1.40;1.30;;;;;;;-2.06;81.17;96794.47;4762363;30;20067;-79
2023/12/25 11:13:25;;;;;;;1.10;1.10;;;;;;;-2.14;80.71;96781.53;4766951;29;20048;-78
2023/12/25 11:15:53;;;;;;;1.00;1.00;;;;;;;-2.14;81.08;96773.59;4763123;30;20056;-79
2023/12/25 11:18:21;;;;;;;1.10;1.10;;;;;;;-2.16;80.96;96779.09;4765983;29;20059;-80
2023/12/25 11:21:19;;;;;;;1.10;1.10;;;;;;;-2.08;80.58;96762.16;4765070;30;20051;-79
2023/12/25 11:23:48;;;;;;;1.10;1.10;;;;;;;-2.09;80.43;96768.47;4766650;29;20134;-78
2023/12/25 11:26:23;;;;;;;1.17;1.13;;;;;;;-2.10;80.16;96764.19;4765676;30;20055;-79
2023/12/25 11:29:01;;;;;;;1.20;1.15;;;;;;;-2.02;79.75;96793.81;4780367;30;20055;-79
2023/12/25 11:31:30;;;;;;;1.13;1.13;;;;;;;-2.10;76.99;96748.34;4771546;30;20064;-79
2023/12/25 11:34:32;;;;;;;1.05;1.05;;;;;;;-2.04;77.23;96747.47;4764596;30;21034;-78
2023/12/25 11:37:03;;;;;;;1.05;1.05;;;;;;;-2.09;77.05;96729.63;4779320;29;20575;-78
2023/12/25 11:39:31;;;;;;;1.08;1.08;;;;;;;-2.12;76.68;96730.06;4784965;30;20046;-78